Flight Track Log - Related Links

Times and Time Zones

All times are in EDT time to prevent confusion due to time zone crossing. See the SWA1046 flight status page for this flight to view local times or setup timezone preferences in your user account.

Time Position Orientation Groundspeed Altitude Reporting Facility
EDT Latitude Longitude Course Direction KTS MPH feet Rate Location/Type
Wed 02:12:19 PM 38.7833 -90.4333 311° West 196 226 3,900  Level Gateway (St. Louis) TRACON
Wed 02:13:34 PM 38.7528 -90.5158 245° Southwest 234 269 6,000 1,314 Climbing Kansas City Center
Wed 02:14:36 PM 38.6964 -90.5764 220° Southwest 259 298 6,900 2,274 Climbing Kansas City Center
Wed 02:15:38 PM 38.6369 -90.6356 218° Southwest 272 313 10,700 3,726 Climbing Kansas City Center
Wed 02:16:40 PM 38.5517 -90.7233 219° Southwest 322 371 14,600 2,177 Climbing Kansas City Center
Wed 02:17:42 PM 38.4750 -90.8003 218° Southwest 345 397 15,200 1,887 Climbing Kansas City Center
Wed 02:18:44 PM 38.3978 -90.8789 219° Southwest 355 409 18,500 3,048 Climbing Kansas City Center
Wed 02:19:46 PM 38.3172 -90.9608 219° Southwest 367 422 21,500 2,177 Climbing Kansas City Center
Wed 02:20:48 PM 38.2303 -91.0403 216° Southwest 381 438 23,000 1,694 Climbing Kansas City Center
Wed 02:21:50 PM 38.1297 -91.1272 214° Southwest 396 456 25,000 2,081 Climbing Kansas City Center
Wed 02:22:52 PM 38.0342 -91.2119 215° Southwest 411 473 27,300 2,419 Climbing Kansas City Center
Wed 02:23:54 PM 37.9333 -91.3394 225° Southwest 421 484 30,000 2,323 Climbing Kansas City Center
Wed 02:24:56 PM 37.8497 -91.4494 226° Southwest 428 493 32,100 1,935 Climbing Kansas City Center
Wed 02:25:58 PM 37.7653 -91.5586 226° Southwest 430 495 34,000 1,452 Climbing Kansas City Center
Wed 02:27:00 PM 37.6822 -91.6678 226° Southwest 428 493 35,100 1,355 Climbing Kansas City Center
Wed 02:28:02 PM 37.5992 -91.7764 226° Southwest 426 490 36,800 1,306 Climbing Kansas City Center
Wed 02:29:04 PM 37.5108 -91.8822 224° Southwest 431 496 37,800 1,258 Climbing Kansas City Center
Wed 02:30:06 PM 37.4194 -91.9894 223° Southwest 440 506 39,400 1,065 Climbing Kansas City Center
Wed 02:31:08 PM 37.3314 -92.0925 223° Southwest 434 499 40,000 290 Climbing Kansas City Center
Wed 02:32:10 PM 37.2433 -92.1942 223° Southwest 429 494 40,000  Level Kansas City Center
Wed 02:33:12 PM 37.1383 -92.3161 223° Southwest 427 491 40,000  Level Kansas City Center
Wed 02:34:14 PM 37.0508 -92.4167 223° Southwest 425 489 40,000  Level Kansas City Center
Wed 02:35:15 PM 36.9617 -92.5167 222° Southwest 427 491 40,000  Level Kansas City Center
Wed 02:36:17 PM 36.8725 -92.6175 222° Southwest 429 494 40,000  Level Kansas City Center
Wed 02:36:44 PM 36.8356 -92.6614 224° Southwest 428 493 40,000  Level Memphis Center
Wed 02:37:44 PM 36.7503 -92.7650 224° Southwest 428 493 40,000  Level Memphis Center
Wed 02:38:44 PM 36.6608 -92.8608 221° Southwest 433 498 40,000  Level Memphis Center
Wed 02:39:44 PM 36.5756 -92.9614 223° Southwest 433 498 40,000  Level Memphis Center
Wed 02:40:44 PM 36.4881 -93.0594 222° Southwest 428 493 40,000  Level Memphis Center
Wed 02:41:44 PM 36.3917 -93.1694 223° Southwest 428 493 40,000  Level Memphis Center
Wed 02:42:44 PM 36.3042 -93.2644 221° Southwest 428 493 40,000  Level Memphis Center
Wed 02:43:44 PM 36.2164 -93.3617 222° Southwest 428 493 40,000  Level Memphis Center
Wed 02:44:44 PM 36.1283 -93.4586 222° Southwest 428 493 40,000  Level Memphis Center
Wed 02:45:44 PM 36.0406 -93.5581 223° Southwest 428 493 40,000  Level Memphis Center
Wed 02:46:44 PM 35.9525 -93.6572 222° Southwest 428 493 40,000  Level Memphis Center
Wed 02:47:44 PM 35.8622 -93.7533 221° Southwest 428 493 40,000  Level Memphis Center
Wed 02:48:44 PM 35.7739 -93.8522 222° Southwest 423 487 40,000  Level Memphis Center
Wed 02:49:44 PM 35.6836 -93.9506 222° Southwest 428 493 40,000  Level Memphis Center
Wed 02:50:44 PM 35.5953 -94.0464 221° Southwest 428 493 40,000  Level Memphis Center
Wed 02:51:44 PM 35.5028 -94.1442 221° Southwest 428 493 40,000  Level Memphis Center
Wed 02:52:44 PM 35.4164 -94.2397 222° Southwest 428 493 40,000  Level Memphis Center
Wed 02:53:44 PM 35.3297 -94.3375 223° Southwest 423 487 40,000  Level Memphis Center
Wed 02:54:44 PM 35.2478 -94.4250 221° Southwest 428 493 40,000  Level Memphis Center
Wed 02:55:44 PM 35.1589 -94.5222 222° Southwest 428 493 40,000  Level Memphis Center
Wed 02:56:50 PM 35.0625 -94.6286 222° Southwest 426 490 40,000  Level Fort Worth Center
Wed 02:57:50 PM 34.9750 -94.7250 222° Southwest 426 490 40,000  Level Fort Worth Center
Wed 02:58:50 PM 34.8853 -94.8217 221° Southwest 426 490 40,000  Level Fort Worth Center
Wed 02:59:50 PM 34.7953 -94.9178 221° Southwest 426 490 40,000 -400 Level Fort Worth Center
Wed 03:00:50 PM 34.7075 -95.0089 220° Southwest 426 490 39,200 -1,600 Descending Fort Worth Center
Wed 03:01:50 PM 34.6194 -95.1047 222° Southwest 426 490 36,800 -2,350 Descending Fort Worth Center
Wed 03:02:50 PM 34.5294 -95.1978 220° Southwest 431 496 34,500 -2,300 Descending Fort Worth Center
Wed 03:03:50 PM 34.4392 -95.2958 222° Southwest 431 496 32,200 -2,300 Descending Fort Worth Center
Wed 03:04:50 PM 34.3492 -95.3911 221° Southwest 431 496 29,900 -2,300 Descending Fort Worth Center
Wed 03:05:50 PM 34.2567 -95.4864 220° Southwest 431 496 27,600 -2,350 Descending Fort Worth Center
Wed 03:06:50 PM 34.1475 -95.5917 219° Southwest 443 510 25,200 -2,450 Descending Fort Worth Center
Wed 03:07:50 PM 34.0611 -95.6636 215° Southwest 443 510 22,700 -2,300 Descending Fort Worth Center
Wed 03:08:50 PM 33.9722 -95.7406 216° Southwest 420 483 20,600 -1,950 Descending Fort Worth Center
Wed 03:09:50 PM 33.8939 -95.8069 215° Southwest 381 438 18,800 -1,591 Descending Fort Worth Center
Wed 03:11:02 PM 33.8217 -95.8658 214° Southwest 349 402 17,100 -1,909 Descending Fort Worth Center
Wed 03:12:02 PM 33.7286 -95.9475 216° Southwest 321 369 14,600 -2,100 Descending Fort Worth Center
Wed 03:13:02 PM 33.6625 -96.0033 215° Southwest 321 369 12,900 -1,800 Descending Fort Worth Center
Wed 03:14:02 PM 33.5881 -96.0669 215° Southwest 310 357 11,000 -1,500 Descending Fort Worth Center
Wed 03:15:02 PM 33.5197 -96.1203 213° Southwest 310 357 9,900 -500 Descending Fort Worth Center
Wed 03:16:02 PM 33.4578 -96.1736 216° Southwest 287 330 10,000 50 Climbing Fort Worth Center
Wed 03:17:02 PM 33.3894 -96.2317 215° Southwest 287 330 10,000  Level Fort Worth Center
Wed 03:18:02 PM 33.3231 -96.2872 215° Southwest 292 336 10,000 -500 Level Fort Worth Center
Wed 03:19:02 PM 33.2631 -96.3378 215° Southwest 279 321 9,000 -850 Descending Fort Worth Center
Wed 03:20:02 PM 33.2197 -96.4028 231° Southwest 256 295 8,300 -800 Descending Fort Worth Center
Wed 03:21:02 PM 33.1764 -96.4728 234° Southwest 266 306 7,400 -1,000 Descending Fort Worth Center
Wed 03:22:02 PM 33.1331 -96.5453 234° Southwest 266 306 6,300 -1,050 Descending Fort Worth Center
Wed 03:23:02 PM 33.0917 -96.6150 235° Southwest 271 312 5,300 -950 Descending Fort Worth Center
Wed 03:24:02 PM 33.0506 -96.6822 234° Southwest 271 312 4,400 -813 Descending Fort Worth Center
Wed 03:24:38 PM 33.0333 -96.7167 239° Southwest 252 290 4,000 -563 Descending Dallas / Fort Worth TRACON
Wed 03:25:38 PM 32.9833 -96.7833 228° Southwest 236 272 3,500 -550 Descending Dallas / Fort Worth TRACON
Wed 03:26:38 PM 32.9500 -96.8500 239° Southwest 208 239 2,900 -450 Descending Dallas / Fort Worth TRACON
Wed 03:27:38 PM 32.9167 -96.8833 220° Southwest 134 154 2,600 -650 Descending Dallas / Fort Worth TRACON
Wed 03:28:38 PM 32.8833 -96.8833 180° South 130 150 1,600 -1,000 Descending Dallas / Fort Worth TRACON
Wed 03:32:00 PM 32.8471 -96.8518 228° Southwest  Level Estimated

Login

Don't have an account? Register now (free) for customized features, flight alerts, and more!